This is the latest recevied weather packets stored in our database for station/object XE1E-15. If no packets are shown the sender has not sent any weather packets the latest 10 day(s).
| Time | Temp. | Humidity | Pressure | Rain* | Wind** | Luminosity | Snow |
|---|---|---|---|---|---|---|---|
| 1777757508 | 31.67° C | 26% | 1019.7 hPa | - | - | - | - |
| 1777756548 | 32.22° C | 25% | 1020 hPa | - | - | - | - |
| 1777753667 | 32.22° C | 25% | 1020.5 hPa | - | - | - | - |
| 1777752707 | 32.22° C | 24% | 1020.7 hPa | - | - | - | - |
| 1777751785 | 31.67° C | 24% | 1020.9 hPa | - | - | - | - |
| 1777751747 | 31.67° C | 24% | 1020.9 hPa | - | - | - | - |
| 1777749350 | 31.67° C | 23% | 1021.5 hPa | - | - | - | - |
| 1777744549 | 33.33° C | 23% | 1022.6 hPa | - | - | - | - |
| 1777739748 | 31.67° C | 26% | 1023.5 hPa | - | - | - | - |
| 1777738787 | 31.67° C | 25% | 1023.6 hPa | - | - | - | - |
| 1777737827 | 30° C | 29% | 1023.7 hPa | - | - | - | - |
| 1777735907 | 28.89° C | 31% | 1023.8 hPa | - | - | - | - |
| 1777734947 | 28.89° C | 31% | 1023.7 hPa | - | - | - | - |
| 1777733987 | 28.33° C | 31% | 1023.7 hPa | - | - | - | - |
| 1777733027 | 27.22° C | 33% | 1023.6 hPa | - | - | - | - |
| 1777732067 | 27.78° C | 33% | 1023.7 hPa | - | - | - | - |
| 1777731107 | 26.11° C | 35% | 1023.5 hPa | - | - | - | - |
| 1777730146 | 26.11° C | 35% | 1023.4 hPa | - | - | - | - |
| 1777728707 | 26.11° C | 35% | 1023.3 hPa | - | - | - | - |
| 1777727814 | 25.56° C | 36% | 1023.1 hPa | - | - | - | - |
| 1777727747 | 25.56° C | 36% | 1023.1 hPa | - | - | - | - |
| 1777726787 | 24.44° C | 36% | 1022.9 hPa | - | - | - | - |
| 1777725827 | 25° C | 38% | 1022.6 hPa | - | - | - | - |
| 1777724867 | 24.44° C | 38% | 1022.3 hPa | - | - | - | - |
| 1777723907 | 25° C | 41% | 1022.3 hPa | - | - | - | - |
* Rain since midnight (hover to see other rain measurements)
** Current wind speed in m/s (hover to see current wind gust speed)